Time;durP1;ratioP1;P1;durP2;ratioP2;P2;SDS_P1;SDS_P2;PMS_P1;PMS_P2;Temp;Humidity;BMP_temperature;BMP_pressure;BME280_temperature;BME280_humidity;BME280_pressure;Samples;Min_cycle;Max_cycle;Signal;HPM_P1;HPM_P2
2021/06/18 00:01:47;;;;;;;42.17;21.35;;;18.60;61.10;;;;;;5074580;28;20029;-81
2021/06/18 00:04:12;;;;;;;33.60;16.88;;;18.60;60.90;;;;;;5075115;28;20027;-81
2021/06/18 00:06:38;;;;;;;35.75;18.48;;;18.60;61.70;;;;;;5057697;28;20514;-80
2021/06/18 00:09:08;;;;;;;34.70;17.92;;;18.60;61.80;;;;;;5074762;28;20040;-81
2021/06/18 00:11:34;;;;;;;40.17;19.25;;;18.60;62.00;;;;;;5076121;28;20029;-81
2021/06/18 00:14:00;;;;;;;41.20;19.23;;;18.50;62.00;;;;;;5074722;28;20029;-81
2021/06/18 00:16:26;;;;;;;40.05;23.02;;;18.50;62.40;;;;;;5074626;28;20019;-81
2021/06/18 00:18:52;;;;;;;52.78;25.48;;;18.50;62.50;;;;;;5077010;28;20024;-81
2021/06/18 00:21:21;;;;;;;61.03;25.00;;;18.40;62.30;;;;;;5077787;28;20030;-81
2021/06/18 00:23:47;;;;;;;55.40;24.73;;;18.40;62.30;;;;;;5077329;28;20024;-81
2021/06/18 00:26:13;;;;;;;48.63;25.48;;;18.40;62.80;;;;;;5053817;28;20016;-81
2021/06/18 00:28:42;;;;;;;44.40;22.70;;;18.30;62.20;;;;;;5074319;28;20027;-81
2021/06/18 00:31:11;;;;;;;44.08;22.77;;;18.30;63.10;;;;;;5068930;28;20025;-83
2021/06/18 00:33:37;;;;;;;47.50;25.92;;;18.30;63.60;;;;;;5079727;28;20023;-81
2021/06/18 00:36:06;;;;;;;46.30;26.63;;;18.30;63.70;;;;;;5068929;28;20069;-80
2021/06/18 00:38:32;;;;;;;46.83;24.98;;;18.20;63.40;;;;;;5074658;28;20033;-82
2021/06/18 00:41:01;;;;;;;42.63;22.98;;;18.20;63.80;;;;;;5075330;28;20402;-81
2021/06/18 00:43:27;;;;;;;48.08;25.90;;;18.20;63.30;;;;;;5068123;28;20021;-81
2021/06/18 00:45:52;;;;;;;49.03;26.25;;;18.20;63.40;;;;;;5058764;28;20493;-81
2021/06/18 00:48:21;;;;;;;52.40;25.63;;;18.20;63.60;;;;;;5059275;28;20032;-80
2021/06/18 00:50:48;;;;;;;44.58;25.10;;;18.20;63.70;;;;;;5075676;28;20023;-82
2021/06/18 00:53:14;;;;;;;39.30;23.33;;;18.20;63.90;;;;;;5075412;28;20044;-79
2021/06/18 00:55:40;;;;;;;28.60;16.25;;;18.20;63.60;;;;;;5074966;28;20477;-82
2021/06/18 00:58:07;;;;;;;47.08;26.15;;;18.20;61.70;;;;;;5074590;28;20367;-81
2021/06/18 01:00:34;;;;;;;45.10;25.40;;;18.20;63.50;;;;;;5075321;28;20025;-82
2021/06/18 01:03:00;;;;;;;41.25;22.95;;;18.20;63.80;;;;;;5075222;28;20052;-80
2021/06/18 01:05:26;;;;;;;36.88;21.50;;;18.20;63.90;;;;;;5074252;28;20054;-80
2021/06/18 01:07:57;;;;;;;42.63;22.13;;;18.20;64.30;;;;;;5073690;28;20017;-81
2021/06/18 01:10:45;;;;;;;35.10;20.00;;;18.20;64.30;;;;;;5074855;28;20352;-80
2021/06/18 01:13:45;;;;;;;33.03;20.17;;;18.20;64.50;;;;;;5074526;28;20017;-80
2021/06/18 01:16:35;;;;;;;37.75;19.38;;;18.20;64.60;;;;;;5051364;28;20496;-80
2021/06/18 01:19:39;;;;;;;36.20;19.98;;;18.20;64.80;;;;;;5073421;28;20107;-80
2021/06/18 01:22:09;;;;;;;31.77;18.63;;;18.20;64.80;;;;;;5075703;28;20029;-80
2021/06/18 01:24:57;;;;;;;26.13;17.80;;;18.20;65.30;;;;;;5048492;28;20454;-80
2021/06/18 01:27:32;;;;;;;37.88;19.10;;;18.20;65.40;;;;;;5073397;28;20044;-82
2021/06/18 01:30:06;;;;;;;32.13;19.42;;;18.20;65.60;;;;;;5073195;28;20071;-80
2021/06/18 01:32:51;;;;;;;33.92;19.23;;;18.20;66.00;;;;;;5050922;28;20377;-80
2021/06/18 01:35:22;;;;;;;37.45;19.92;;;18.30;65.90;;;;;;5072223;28;20418;-80
2021/06/18 01:37:54;;;;;;;38.88;20.92;;;18.30;66.10;;;;;;5064775;28;20098;-82
2021/06/18 01:40:22;;;;;;;33.72;21.20;;;18.30;66.20;;;;;;5065327;28;20064;-83
2021/06/18 01:42:50;;;;;;;36.88;20.48;;;18.40;66.30;;;;;;5073444;28;20505;-84
2021/06/18 01:45:18;;;;;;;37.28;19.00;;;18.40;65.90;;;;;;5074130;28;20056;-82
2021/06/18 01:47:46;;;;;;;37.53;19.70;;;18.40;65.40;;;;;;5074380;28;20020;-82
2021/06/18 01:50:21;;;;;;;;;;;18.50;65.60;;;;;;5068413;28;20040;-81
2021/06/18 01:53:10;;;;;;;37.33;20.40;;;18.60;64.70;;;;;;5073121;28;19904;-83
2021/06/18 01:55:38;;;;;;;34.33;19.05;;;18.70;65.40;;;;;;5071941;28;20024;-83
2021/06/18 01:58:05;;;;;;;29.77;16.10;;;18.70;65.40;;;;;;5073319;28;20066;-83
2021/06/18 02:00:34;;;;;;;32.20;17.38;;;18.80;64.30;;;;;;5072996;28;20437;-83
2021/06/18 02:03:03;;;;;;;30.58;14.25;;;19.00;64.50;;;;;;5072556;28;20104;-82
2021/06/18 02:05:33;;;;;;;34.10;15.75;;;19.10;63.10;;;;;;5052625;28;20028;-82
2021/06/18 02:08:00;;;;;;;31.55;12.73;;;19.20;63.50;;;;;;5072627;28;20039;-81
2021/06/18 02:10:26;;;;;;;31.17;12.93;;;19.30;60.80;;;;;;5054742;28;20063;-82
2021/06/18 02:12:54;;;;;;;19.00;10.43;;;19.30;60.40;;;;;;5055130;28;20021;-82
2021/06/18 02:15:21;;;;;;;20.70;10.68;;;19.40;59.00;;;;;;5073023;28;20363;-83
2021/06/18 02:17:49;;;;;;;24.27;10.80;;;19.50;58.70;;;;;;5072948;28;20016;-83
2021/06/18 02:20:16;;;;;;;26.52;10.50;;;19.50;58.00;;;;;;5072434;28;20048;-83
2021/06/18 02:22:45;;;;;;;18.10;10.57;;;19.60;58.00;;;;;;5072644;28;20023;-83
2021/06/18 02:25:13;;;;;;;23.17;10.48;;;19.60;58.50;;;;;;5062547;28;20035;-82
2021/06/18 02:27:40;;;;;;;12.75;8.30;;;19.70;57.80;;;;;;5072241;28;20165;-82
2021/06/18 02:30:13;;;;;;;18.10;10.43;;;19.80;56.20;;;;;;5072046;28;20028;-83
2021/06/18 02:32:40;;;;;;;16.60;9.65;;;19.80;56.30;;;;;;5063470;28;20095;-83
2021/06/18 02:35:07;;;;;;;19.48;9.23;;;19.90;56.20;;;;;;5072440;28;20013;-82
2021/06/18 02:37:34;;;;;;;16.50;9.43;;;19.90;56.10;;;;;;5070752;28;20105;-82
2021/06/18 02:40:00;;;;;;;23.15;9.52;;;20.00;56.80;;;;;;5081665;28;20037;-82
2021/06/18 02:42:26;;;;;;;20.67;10.35;;;20.00;56.80;;;;;;5074267;28;20055;-82
2021/06/18 02:44:53;;;;;;;22.57;9.60;;;20.10;56.90;;;;;;5075836;28;20438;-80
2021/06/18 02:47:32;;;;;;;15.68;9.75;;;20.20;57.20;;;;;;5073551;28;20017;-81
2021/06/18 02:50:06;;;;;;;13.88;8.73;;;20.30;56.60;;;;;;5073016;28;20404;-84
2021/06/18 02:52:42;;;;;;;17.30;8.68;;;20.30;55.50;;;;;;5072334;28;20012;-81
2021/06/18 02:55:29;;;;;;;19.20;8.55;;;20.30;55.70;;;;;;5072497;28;20036;-83
2021/06/18 02:58:05;;;;;;;14.98;7.63;;;20.40;55.10;;;;;;5066190;28;20018;-82
2021/06/18 03:00:33;;;;;;;15.18;6.50;;;20.60;54.50;;;;;;5048108;28;20052;-81
2021/06/18 03:03:03;;;;;;;14.20;6.10;;;20.70;54.70;;;;;;5054922;28;20016;-81
2021/06/18 03:05:30;;;;;;;9.95;4.90;;;20.90;54.30;;;;;;5072863;28;20027;-83
2021/06/18 03:08:06;;;;;;;9.07;6.15;;;21.10;53.60;;;;;;5075758;28;20066;-83
2021/06/18 03:10:40;;;;;;;12.13;4.97;;;21.30;53.30;;;;;;5056640;28;20040;-82
2021/06/18 03:13:13;;;;;;;13.15;4.07;;;21.60;53.40;;;;;;5078495;28;20108;-81
2021/06/18 03:15:43;;;;;;;7.38;3.95;;;21.80;52.00;;;;;;5081252;28;20018;-82
2021/06/18 03:18:10;;;;;;;5.55;3.38;;;21.80;50.60;;;;;;5085321;28;20457;-82
2021/06/18 03:20:36;;;;;;;;;;;21.70;51.10;;;;;;5076800;28;20039;-83
2021/06/18 03:23:06;;;;;;;9.13;4.40;;;21.70;51.50;;;;;;5076006;28;19904;-83
2021/06/18 03:25:35;;;;;;;4.88;3.58;;;21.50;50.90;;;;;;5075966;28;20017;-83
2021/06/18 03:28:02;;;;;;;4.55;2.25;;;21.50;50.80;;;;;;5083447;28;20021;-83
2021/06/18 03:30:29;;;;;;;9.70;3.35;;;21.40;50.00;;;;;;5076392;28;20037;-82
2021/06/18 03:32:56;;;;;;;4.00;2.67;;;21.40;51.30;;;;;;5076482;28;20032;-83
2021/06/18 03:35:22;;;;;;;;;;;21.30;50.70;;;;;;5087680;28;20023;-82
2021/06/18 03:37:49;;;;;;;6.90;2.80;;;21.40;51.10;;;;;;5077089;28;19973;-83
2021/06/18 03:40:15;;;;;;;10.50;3.63;;;21.50;51.20;;;;;;5077339;28;20472;-83
2021/06/18 03:42:43;;;;;;;6.85;2.35;;;21.60;51.10;;;;;;5080685;28;20027;-83
2021/06/18 03:45:09;;;;;;;4.00;2.05;;;21.60;49.40;;;;;;5082761;28;20029;-85
2021/06/18 03:47:38;;;;;;;6.53;2.42;;;21.60;49.50;;;;;;5076768;28;20021;-84
2021/06/18 03:50:05;;;;;;;3.05;1.90;;;21.60;49.20;;;;;;5076459;28;20456;-84
2021/06/18 03:52:31;;;;;;;3.78;2.00;;;21.60;48.70;;;;;;5076355;28;20112;-86
2021/06/18 03:54:57;;;;;;;5.90;2.03;;;21.60;48.50;;;;;;5076614;28;20030;-84
2021/06/18 03:57:24;;;;;;;4.05;1.70;;;21.70;48.30;;;;;;5057640;28;20017;-82
2021/06/18 03:59:51;;;;;;;2.13;1.33;;;21.70;48.00;;;;;;5075307;28;20135;-84
2021/06/18 04:02:19;;;;;;;3.45;1.92;;;21.70;47.60;;;;;;5075278;28;20017;-82
2021/06/18 04:04:46;;;;;;;3.15;1.80;;;21.70;47.90;;;;;;5075063;28;20021;-83
2021/06/18 04:07:12;;;;;;;4.90;1.90;;;21.80;47.60;;;;;;5072201;28;20155;-83
2021/06/18 04:09:39;;;;;;;3.78;1.50;;;21.80;47.40;;;;;;5072543;28;20036;-83
2021/06/18 04:12:09;;;;;;;1.70;1.57;;;21.90;47.20;;;;;;5075075;28;20020;-82
2021/06/18 04:14:35;;;;;;;3.63;1.90;;;21.90;47.20;;;;;;5074839;28;20021;-84
2021/06/18 04:17:07;;;;;;;7.13;1.57;;;22.00;46.90;;;;;;5076358;28;20023;-82
2021/06/18 04:19:34;;;;;;;6.75;1.77;;;22.00;46.90;;;;;;5078382;28;20249;-82
2021/06/18 04:22:05;;;;;;;2.33;1.70;;;22.10;46.80;;;;;;5074652;28;20095;-82
2021/06/18 04:24:31;;;;;;;3.35;1.55;;;22.10;47.10;;;;;;5066861;28;20028;-84
2021/06/18 04:26:57;;;;;;;2.53;1.75;;;22.20;46.90;;;;;;5057769;28;20033;-83
2021/06/18 04:29:24;;;;;;;4.70;1.73;;;22.20;46.40;;;;;;5074781;28;20024;-83
2021/06/18 04:31:49;;;;;;;1.88;1.60;;;22.30;46.30;;;;;;5074626;28;20036;-82
2021/06/18 04:34:15;;;;;;;2.85;1.85;;;22.40;46.40;;;;;;5074755;28;20028;-83
2021/06/18 04:36:42;;;;;;;3.13;1.30;;;22.50;46.10;;;;;;5074928;28;20027;-82
2021/06/18 04:39:08;;;;;;;6.53;2.00;;;22.60;47.00;;;;;;5088820;28;20111;-83
2021/06/18 04:41:35;;;;;;;2.80;1.50;;;22.70;45.80;;;;;;5069555;28;20494;-83
2021/06/18 04:44:01;;;;;;;2.00;1.10;;;22.90;45.10;;;;;;5075456;28;20036;-84
2021/06/18 04:46:27;;;;;;;3.80;1.50;;;23.10;44.70;;;;;;5056655;28;20027;-82
2021/06/18 04:48:53;;;;;;;4.10;1.50;;;23.10;44.70;;;;;;5075350;28;20037;-83
2021/06/18 04:51:19;;;;;;;1.67;1.58;;;23.10;43.50;;;;;;5063562;28;20020;-82
2021/06/18 04:53:46;;;;;;;1.70;1.10;;;23.00;42.90;;;;;;5073978;28;20028;-82
2021/06/18 04:56:13;;;;;;;2.05;1.00;;;22.80;43.00;;;;;;5074170;28;20024;-83
2021/06/18 04:58:39;;;;;;;3.90;1.40;;;22.70;43.80;;;;;;5074159;28;20028;-83
2021/06/18 05:01:06;;;;;;;5.38;1.05;;;22.70;43.60;;;;;;5056102;28;20385;-82
2021/06/18 05:03:32;;;;;;;2.42;1.27;;;22.70;43.90;;;;;;5056134;28;20039;-83
2021/06/18 05:05:58;;;;;;;2.97;1.02;;;22.70;43.60;;;;;;5071413;28;20397;-82
2021/06/18 05:08:24;;;;;;;7.47;1.15;;;22.70;44.00;;;;;;5074528;28;20028;-82
2021/06/18 05:10:50;;;;;;;1.00;0.90;;;22.80;44.00;;;;;;5074840;28;20104;-85
2021/06/18 05:13:16;;;;;;;1.42;1.00;;;23.00;43.80;;;;;;5075042;28;20370;-84
2021/06/18 05:15:41;;;;;;;2.42;1.20;;;23.50;43.30;;;;;;5067732;28;20024;-83
2021/06/18 05:18:07;;;;;;;3.05;1.30;;;24.20;41.70;;;;;;5073900;28;20108;-82
2021/06/18 05:20:33;;;;;;;3.45;1.30;;;25.00;40.30;;;;;;5081535;28;20027;-84
2021/06/18 05:22:59;;;;;;;2.88;1.00;;;26.10;38.80;;;;;;5073950;28;20533;-83
2021/06/18 05:25:25;;;;;;;7.05;1.00;;;26.90;37.50;;;;;;5059632;28;20059;-83
2021/06/18 05:27:51;;;;;;;1.92;0.90;;;27.80;36.30;;;;;;5075877;28;20032;-85
2021/06/18 05:30:18;;;;;;;4.63;1.20;;;28.40;35.10;;;;;;5076927;28;20517;-84
2021/06/18 05:32:46;;;;;;;;;;;28.60;35.00;;;;;;5082878;28;20038;-85
2021/06/18 05:35:13;;;;;;;5.25;1.40;;;29.20;35.70;;;;;;5073745;28;19910;-84
2021/06/18 05:37:39;;;;;;;6.32;1.30;;;30.40;34.10;;;;;;5068259;28;20009;-83
2021/06/18 05:40:06;;;;;;;2.70;1.40;;;30.80;31.90;;;;;;5066517;28;20055;-83
2021/06/18 05:42:32;;;;;;;;;;;30.70;32.30;;;;;;5073689;28;20025;-83
2021/06/18 05:44:58;;;;;;;2.13;1.45;;;;;;;;;;5074260;28;20258;-85
2021/06/18 05:47:24;;;;;;;3.95;1.05;;;31.00;34.10;;;;;;5077600;28;20031;-84
2021/06/18 05:49:50;;;;;;;3.90;1.65;;;33.40;30.60;;;;;;5076960;28;20111;-85
2021/06/18 05:52:16;;;;;;;2.10;1.00;;;34.20;29.80;;;;;;5075748;28;20056;-84
2021/06/18 05:54:42;;;;;;;3.53;1.35;;;34.70;29.00;;;;;;5074390;28;20404;-84
2021/06/18 05:57:08;;;;;;;1.57;1.07;;;35.10;28.60;;;;;;5073242;28;20111;-84
2021/06/18 05:59:34;;;;;;;2.67;1.00;;;34.80;27.80;;;;;;5055102;28;20017;-82
2021/06/18 06:02:00;;;;;;;1.70;1.07;;;34.70;28.30;;;;;;5073043;28;20660;-83
2021/06/18 06:04:26;;;;;;;2.63;0.93;;;34.50;28.00;;;;;;5067313;28;20021;-83
2021/06/18 06:06:51;;;;;;;5.33;1.60;;;34.70;28.40;;;;;;5054709;28;20033;-84
2021/06/18 06:09:17;;;;;;;3.97;1.17;;;35.90;27.90;;;;;;5072823;28;20076;-83
2021/06/18 06:11:43;;;;;;;4.57;1.27;;;36.60;27.00;;;;;;5074676;28;20422;-85
2021/06/18 06:14:16;;;;;;;4.67;1.23;;;37.60;27.40;;;;;;5076314;28;20030;-84
2021/06/18 06:16:41;;;;;;;2.70;1.10;;;38.50;26.40;;;;;;5074457;28;20245;-85
2021/06/18 06:19:07;;;;;;;2.28;1.25;;;39.50;25.80;;;;;;5079485;28;20028;-83
2021/06/18 06:21:33;;;;;;;5.00;1.25;;;40.40;25.20;;;;;;5080094;28;20017;-84
2021/06/18 06:23:59;;;;;;;4.73;1.10;;;39.40;25.30;;;;;;5058283;28;20020;-87
2021/06/18 06:26:25;;;;;;;5.45;1.88;;;39.00;25.80;;;;;;5074612;28;20261;-85
2021/06/18 06:28:51;;;;;;;7.00;1.08;;;39.80;25.60;;;;;;5065279;28;20036;-85
2021/06/18 06:31:17;;;;;;;2.78;1.20;;;40.60;25.10;;;;;;5072714;28;20377;-84
2021/06/18 06:33:43;;;;;;;;;;;41.00;25.00;;;;;;5047504;28;20501;-86
2021/06/18 06:36:09;;;;;;;7.00;1.50;;;41.80;24.70;;;;;;5032200;28;19909;-86
2021/06/18 06:38:36;;;;;;;7.35;1.48;;;41.80;24.90;;;;;;5078927;28;20382;-89
2021/06/18 06:41:03;;;;;;;6.88;2.05;;;42.70;24.30;;;;;;5073825;28;20114;-90
2021/06/18 06:43:29;;;;;;;6.00;2.08;;;43.00;24.00;;;;;;5045080;28;20048;-90
2021/06/18 06:45:54;;;;;;;3.63;1.20;;;43.50;23.60;;;;;;5066483;28;20032;-93
2021/06/18 06:48:21;;;;;;;5.18;1.42;;;44.00;23.60;;;;;;5089999;28;20032;-92
2021/06/18 06:50:48;;;;;;;2.08;1.55;;;43.90;23.50;;;;;;5090501;28;20021;-90
2021/06/18 06:53:14;;;;;;;6.50;1.55;;;43.80;23.80;;;;;;5082590;28;20092;-91
2021/06/18 06:55:40;;;;;;;;;;;42.90;23.30;;;;;;5083149;28;20025;-91
2021/06/18 06:58:07;;;;;;;6.75;1.77;;;42.90;24.40;;;;;;5082171;28;19904;-92
2021/06/18 07:00:33;;;;;;;3.58;1.38;;;43.70;24.00;;;;;;5091947;28;20025;-91
2021/06/18 07:02:59;;;;;;;;;;;44.00;23.20;;;;;;5080465;28;20036;-88
2021/06/18 07:05:25;;;;;;;3.83;1.48;;;44.40;24.30;;;;;;5071251;28;19927;-89
2021/06/18 07:07:51;;;;;;;;;;;44.50;23.30;;;;;;5086122;28;20016;-90
2021/06/18 07:10:17;;;;;;;6.22;1.83;;;44.30;24.00;;;;;;5095192;28;19926;-90
2021/06/18 07:12:43;;;;;;;;;;;43.60;23.20;;;;;;5097258;28;20047;-91
2021/06/18 07:15:09;;;;;;;6.03;1.65;;;43.10;24.20;;;;;;5098228;28;19904;-91
2021/06/18 07:17:35;;;;;;;9.15;1.98;;;43.40;23.40;;;;;;5100175;28;20036;-90
2021/06/18 07:20:02;;;;;;;4.70;1.67;;;44.30;23.40;;;;;;5092374;28;20111;-91
2021/06/18 07:22:30;;;;;;;2.47;1.45;;;45.30;23.40;;;;;;5071870;28;20029;-89
2021/06/18 07:24:57;;;;;;;4.97;1.75;;;45.20;22.80;;;;;;5076279;28;20017;-91
2021/06/18 07:27:24;;;;;;;5.18;1.85;;;44.50;22.80;;;;;;5078659;28;20449;-91
2021/06/18 07:29:52;;;;;;;7.28;1.77;;;44.10;22.90;;;;;;5077090;28;20025;-92
2021/06/18 07:32:18;;;;;;;4.60;1.50;;;44.60;22.90;;;;;;5076163;28;20372;-93
2021/06/18 07:34:44;;;;;;;3.55;1.10;;;44.90;22.80;;;;;;5076248;28;20028;-90
2021/06/18 07:37:10;;;;;;;4.93;1.45;;;43.80;22.90;;;;;;5045340;28;20017;-91
2021/06/18 07:39:36;;;;;;;;;;;42.70;23.00;;;;;;5058559;28;20039;-91
2021/06/18 07:42:02;;;;;;;5.72;1.80;;;41.60;23.70;;;;;;5090617;28;19937;-91
2021/06/18 07:44:28;;;;;;;2.10;1.20;;;41.80;23.40;;;;;;5077112;28;20017;-92
2021/06/18 07:46:53;;;;;;;;;;;42.20;23.50;;;;;;5069132;28;20390;-91
2021/06/18 07:49:19;;;;;;;4.72;2.10;;;42.50;23.80;;;;;;5043714;28;19958;-90
2021/06/18 07:51:45;;;;;;;;;;;42.60;23.30;;;;;;5087933;28;20031;-91
2021/06/18 07:54:12;;;;;;;3.85;1.50;;;40.80;23.80;;;;;;5071665;28;19947;-92
2021/06/18 07:56:42;;;;;;;1.77;1.00;;;41.70;24.10;;;;;;5089680;28;20495;-90
2021/06/18 07:59:10;;;;;;;2.10;1.25;;;42.90;23.50;;;;;;5065457;28;20040;-92
2021/06/18 08:01:35;;;;;;;3.85;1.23;;;42.30;23.50;;;;;;5062637;28;20411;-92
2021/06/18 08:04:01;;;;;;;;;;;41.20;23.50;;;;;;5090796;28;20029;-91
2021/06/18 08:06:28;;;;;;;4.03;1.70;;;41.80;24.20;;;;;;5088787;28;19995;-93
2021/06/18 08:08:55;;;;;;;2.95;1.52;;;43.10;23.80;;;;;;5080875;28;20441;-92
2021/06/18 08:11:20;;;;;;;6.07;2.10;;;44.20;23.20;;;;;;5067785;28;20490;-91
2021/06/18 08:13:46;;;;;;;4.88;1.60;;;;;;;;;;5076335;28;20046;-89
2021/06/18 08:16:13;;;;;;;4.05;1.60;;;46.20;38.80;;;;;;5074996;28;20029;-88
2021/06/18 08:18:39;;;;;;;3.22;2.03;;;;;;;;;;5049834;28;20020;-91
2021/06/18 08:21:06;;;;;;;5.63;1.33;;;47.10;22.50;;;;;;5073949;28;20020;-89
2021/06/18 08:23:32;;;;;;;5.20;1.77;;;47.20;22.00;;;;;;5076464;28;20112;-90
2021/06/18 08:25:58;;;;;;;3.17;1.30;;;47.40;21.80;;;;;;5062114;28;20048;-91
2021/06/18 08:28:24;;;;;;;4.82;1.30;;;47.50;22.00;;;;;;5076432;28;20028;-90
2021/06/18 08:30:51;;;;;;;2.85;1.30;;;46.20;22.00;;;;;;5078060;28;20465;-92
2021/06/18 08:33:18;;;;;;;3.92;1.40;;;45.50;22.70;;;;;;5097637;28;20020;-90
2021/06/18 08:35:43;;;;;;;6.13;2.53;;;43.90;22.20;;;;;;5082326;28;20028;-91
2021/06/18 08:38:09;;;;;;;2.90;1.30;;;42.20;23.70;;;;;;5075655;28;20024;-91
2021/06/18 08:40:36;;;;;;;4.70;1.38;;;43.30;23.60;;;;;;5065780;28;20591;-92
2021/06/18 08:43:04;;;;;;;4.57;2.08;;;44.10;23.10;;;;;;5062877;28;20032;-91
2021/06/18 08:45:31;;;;;;;7.68;1.92;;;45.00;23.10;;;;;;5046834;28;20025;-90
2021/06/18 08:47:58;;;;;;;5.10;1.70;;;46.10;22.70;;;;;;5066104;28;20025;-91
2021/06/18 08:50:24;;;;;;;1.92;1.30;;;46.90;22.40;;;;;;5045618;28;20017;-89
2021/06/18 08:52:54;;;;;;;5.20;1.52;;;47.10;22.00;;;;;;5063201;28;20040;-91
2021/06/18 08:55:22;;;;;;;4.70;1.20;;;46.50;22.20;;;;;;5068167;28;20013;-90
2021/06/18 08:57:53;;;;;;;3.67;1.73;;;45.90;22.40;;;;;;5066735;28;20059;-91
2021/06/18 09:00:22;;;;;;;3.85;1.42;;;45.50;22.40;;;;;;5039453;28;20036;-92
2021/06/18 09:02:48;;;;;;;3.80;1.27;;;45.50;21.80;;;;;;5040721;28;20409;-91
2021/06/18 09:05:15;;;;;;;5.25;1.50;;;43.10;22.60;;;;;;5042719;28;20025;-91
2021/06/18 09:08:01;;;;;;;3.75;1.60;;;43.10;23.10;;;;;;5061585;28;20025;-93
2021/06/18 09:10:40;;;;;;;;;;;43.30;23.10;;;;;;5063818;28;20420;-92
2021/06/18 09:13:12;;;;;;;10.63;2.50;;;44.40;23.30;;;;;;5071886;28;19904;-91
2021/06/18 09:15:59;;;;;;;4.88;2.10;;;43.50;22.50;;;;;;5049016;28;20035;-89
2021/06/18 09:18:41;;;;;;;5.50;1.80;;;43.60;23.00;;;;;;5045217;28;20032;-91
2021/06/18 09:21:10;;;;;;;3.95;1.52;;;44.60;23.20;;;;;;5047031;28;20016;-92
2021/06/18 09:23:39;;;;;;;5.55;1.38;;;45.20;22.40;;;;;;5075219;28;20092;-90
2021/06/18 09:26:24;;;;;;;3.28;1.40;;;45.30;22.30;;;;;;5057565;28;20067;-91
2021/06/18 09:29:10;;;;;;;3.40;1.77;;;46.10;22.50;;;;;;5048860;28;20025;-92
2021/06/18 09:32:03;;;;;;;3.40;1.45;;;46.50;22.30;;;;;;5028339;28;20036;-92
2021/06/18 09:37:21;;;;;;;6.60;1.63;;;44.70;21.90;;;;;;5059618;28;20021;-92
2021/06/18 09:39:55;;;;;;;6.30;1.85;;;43.80;22.70;;;;;;5048581;28;20033;-92
2021/06/18 09:42:23;;;;;;;7.47;2.13;;;44.50;22.90;;;;;;5079179;28;20097;-91
2021/06/18 09:45:09;;;;;;;5.25;2.00;;;45.00;22.70;;;;;;5076554;28;20028;-88
2021/06/18 09:47:37;;;;;;;2.60;1.02;;;43.90;22.30;;;;;;5061973;28;20025;-91
2021/06/18 09:50:05;;;;;;;6.78;2.10;;;42.10;23.60;;;;;;5079030;28;20028;-92
2021/06/18 09:52:33;;;;;;;4.43;1.48;;;41.50;23.30;;;;;;5063552;28;20031;-93
2021/06/18 09:54:59;;;;;;;5.32;1.63;;;41.80;23.50;;;;;;5064662;28;20024;-92
2021/06/18 09:57:39;;;;;;;6.32;2.30;;;42.70;23.50;;;;;;5050985;28;20398;-92
2021/06/18 10:00:08;;;;;;;8.88;1.70;;;42.50;23.40;;;;;;5069662;28;20044;-92
2021/06/18 10:02:44;;;;;;;6.97;1.92;;;42.90;23.40;;;;;;5055339;28;20115;-91
2021/06/18 10:05:11;;;;;;;7.28;2.15;;;43.70;23.10;;;;;;5080055;28;20032;-90
2021/06/18 10:07:38;;;;;;;7.75;1.75;;;44.30;23.00;;;;;;5079929;28;20028;-91
2021/06/18 10:10:13;;;;;;;5.22;1.75;;;44.50;22.70;;;;;;5062309;28;20489;-91
2021/06/18 10:12:40;;;;;;;4.15;2.10;;;44.50;22.60;;;;;;5081045;28;20024;-91
2021/06/18 10:15:08;;;;;;;5.55;1.60;;;44.60;22.60;;;;;;5061935;28;20025;-91
2021/06/18 10:17:40;;;;;;;3.55;1.90;;;44.30;22.60;;;;;;5049407;28;20401;-90
2021/06/18 10:20:11;;;;;;;4.70;1.60;;;43.40;22.90;;;;;;5082555;28;20036;-89
2021/06/18 10:22:51;;;;;;;4.72;1.80;;;43.20;23.10;;;;;;5083529;28;20397;-92
2021/06/18 10:25:22;;;;;;;5.00;1.83;;;42.60;23.00;;;;;;5072547;28;20032;-91
2021/06/18 10:27:50;;;;;;;7.38;2.22;;;42.70;23.10;;;;;;5071454;28;20020;-91
2021/06/18 10:30:37;;;;;;;7.32;2.30;;;42.70;23.00;;;;;;5083090;28;20066;-91
2021/06/18 10:33:25;;;;;;;7.82;2.17;;;41.80;23.50;;;;;;5096181;28;20048;-92
2021/06/18 10:36:19;;;;;;;14.27;2.50;;;39.90;24.20;;;;;;5081930;28;20104;-91
2021/06/18 10:38:47;;;;;;;8.02;2.47;;;37.40;25.00;;;;;;5062170;28;20049;-92
2021/06/18 10:41:13;;;;;;;10.18;2.80;;;35.20;26.70;;;;;;5092959;28;20055;-93
2021/06/18 10:43:41;;;;;;;7.37;2.60;;;33.90;27.60;;;;;;5089848;28;20021;-90
2021/06/18 10:46:12;;;;;;;4.93;2.42;;;33.10;28.60;;;;;;5060145;28;20021;-91
2021/06/18 10:48:47;;;;;;;4.82;1.92;;;32.00;29.20;;;;;;5086139;28;20020;-91
2021/06/18 10:51:33;;;;;;;5.47;1.88;;;31.20;29.70;;;;;;5061408;28;20021;-91
2021/06/18 10:54:16;;;;;;;5.35;2.50;;;30.70;30.10;;;;;;5064239;28;20033;-90
2021/06/18 10:56:45;;;;;;;7.00;2.53;;;30.20;30.80;;;;;;5091235;28;20142;-93
2021/06/18 10:59:28;;;;;;;7.93;2.53;;;29.80;31.70;;;;;;5072872;28;20138;-92
2021/06/18 11:01:54;;;;;;;8.07;3.13;;;29.50;32.20;;;;;;5087475;28;20020;-91
2021/06/18 11:04:37;;;;;;;8.43;3.10;;;29.20;31.60;;;;;;5065966;28;20025;-89
2021/06/18 11:07:27;;;;;;;6.88;3.30;;;29.10;32.40;;;;;;5077034;28;20046;-91
2021/06/18 11:10:29;;;;;;;9.88;3.00;;;28.90;32.20;;;;;;5083305;28;20031;-87
2021/06/18 11:13:01;;;;;;;7.03;2.95;;;28.70;33.00;;;;;;5080295;28;20434;-89
2021/06/18 11:15:30;;;;;;;10.05;3.13;;;28.60;33.80;;;;;;5074521;28;20104;-91
2021/06/18 11:18:05;;;;;;;16.50;3.15;;;28.30;34.60;;;;;;5103976;28;20066;-92
2021/06/18 11:20:33;;;;;;;7.90;2.78;;;28.40;35.10;;;;;;5078670;28;20040;-90
2021/06/18 11:23:12;;;;;;;5.07;2.90;;;28.30;34.10;;;;;;5091955;28;20048;-93
2021/06/18 11:28:19;;;;;;;6.43;2.75;;;28.20;34.40;;;;;;5087962;28;20092;-91
2021/06/18 11:31:02;;;;;;;9.02;2.88;;;28.10;34.50;;;;;;5093400;28;20555;-91
2021/06/18 11:33:52;;;;;;;5.65;2.95;;;28.10;35.00;;;;;;5057519;28;20029;-92
2021/06/18 11:36:21;;;;;;;6.45;2.80;;;28.00;34.10;;;;;;5090715;28;20036;-89
2021/06/18 11:38:57;;;;;;;6.82;3.50;;;27.80;34.10;;;;;;5076519;28;20750;-90
2021/06/18 11:41:30;;;;;;;11.30;2.83;;;27.60;34.50;;;;;;5109504;28;20055;-90
2021/06/18 11:43:59;;;;;;;6.43;2.60;;;27.60;34.80;;;;;;5069163;28;20020;-92
2021/06/18 11:46:27;;;;;;;5.35;2.42;;;27.60;35.10;;;;;;5083368;28;20462;-93
2021/06/18 11:48:57;;;;;;;3.45;2.47;;;27.60;34.90;;;;;;5070485;28;20020;-93
2021/06/18 11:51:26;;;;;;;6.57;3.55;;;27.60;36.10;;;;;;5094895;28;20049;-90
2021/06/18 11:53:53;;;;;;;6.53;2.28;;;27.70;34.90;;;;;;5089440;28;20013;-89
2021/06/18 11:56:19;;;;;;;9.02;3.00;;;27.70;34.40;;;;;;5085886;28;20020;-94
2021/06/18 11:58:47;;;;;;;5.15;2.88;;;27.60;34.40;;;;;;5067604;28;20062;-92
2021/06/18 12:01:24;;;;;;;5.47;3.42;;;27.50;34.90;;;;;;5085674;28;20029;-92
2021/06/18 12:03:53;;;;;;;7.72;3.15;;;27.50;34.40;;;;;;5070459;28;20074;-94
2021/06/18 12:06:39;;;;;;;6.28;3.13;;;27.50;34.50;;;;;;5059773;28;20028;-92
2021/06/18 12:09:13;;;;;;;5.50;2.88;;;27.60;34.70;;;;;;5076467;28;20108;-92
2021/06/18 12:11:44;;;;;;;7.13;3.20;;;27.50;35.20;;;;;;5041544;28;20085;-92
2021/06/18 12:14:13;;;;;;;9.65;4.10;;;27.50;35.10;;;;;;5090384;28;20354;-92
2021/06/18 12:16:43;;;;;;;13.10;3.28;;;27.60;35.30;;;;;;5081279;28;20017;-91
2021/06/18 12:19:23;;;;;;;6.43;2.80;;;27.50;35.30;;;;;;5077902;28;20495;-94
2021/06/18 12:22:11;;;;;;;5.03;2.70;;;27.50;35.70;;;;;;5082096;28;20031;-92
2021/06/18 12:24:47;;;;;;;6.03;2.78;;;27.60;36.30;;;;;;5085026;28;20114;-93
2021/06/18 12:27:31;;;;;;;5.15;2.70;;;27.50;36.80;;;;;;5094081;28;20020;-92
2021/06/18 12:30:04;;;;;;;5.40;2.38;;;27.60;36.10;;;;;;5078280;28;20020;-91
2021/06/18 12:32:33;;;;;;;8.48;3.28;;;27.50;35.80;;;;;;5069166;28;20048;-91
2021/06/18 12:35:10;;;;;;;8.32;3.10;;;27.50;35.80;;;;;;5073416;28;20007;-92
2021/06/18 12:37:39;;;;;;;14.23;2.97;;;27.60;36.10;;;;;;5047114;28;20099;-93
2021/06/18 12:40:12;;;;;;;8.65;2.90;;;27.50;36.70;;;;;;5038167;28;20052;-89
2021/06/18 12:42:46;;;;;;;5.05;2.53;;;27.50;36.50;;;;;;5076276;28;20308;-92
2021/06/18 12:45:21;;;;;;;3.85;2.80;;;27.30;36.40;;;;;;5061281;28;20029;-94
2021/06/18 12:47:49;;;;;;;10.63;2.65;;;27.10;36.70;;;;;;5064555;28;20010;-93
2021/06/18 12:51:04;;;;;;;6.53;2.67;;;27.00;37.30;;;;;;5067097;28;20078;-92
2021/06/18 12:53:40;;;;;;;5.63;2.90;;;27.10;37.30;;;;;;5057845;28;20043;-91
2021/06/18 12:56:24;;;;;;;7.93;2.80;;;27.00;36.80;;;;;;5073027;28;20020;-93
2021/06/18 12:58:51;;;;;;;6.32;3.03;;;26.90;37.70;;;;;;5087034;28;20032;-89
2021/06/18 13:01:26;;;;;;;7.47;2.75;;;26.90;37.40;;;;;;5079058;28;20059;-92
2021/06/18 13:03:53;;;;;;;3.30;2.20;;;26.90;37.50;;;;;;5054705;28;20440;-89
2021/06/18 13:06:22;;;;;;;6.90;3.55;;;26.90;37.00;;;;;;5063621;28;20020;-94
2021/06/18 13:08:54;;;;;;;6.10;2.92;;;26.80;38.00;;;;;;5065177;28;20020;-94